Orenge 7 — JL6148 — position and weather

sailwx.info

Track history (hours):
 
Tides and Currents Weather Stations Pressure Air Temp Water Temp Dewpoint Dewpoint Depression Visibility Wind Speed Wind Dir Waves Ship Positions

Orenge 7

Last reported at 2015-Apr-20 14:32 UTC. Time now 2015-Apr-21 02:59 UTC.
Position N 34°36' E 134°55'.

Length 163 m; draft 4.9 m.

Type: Passenger vessel. MMSI: 431500186.

Date/timePositionNaut miles runAvg speedWind from/ knotsBaromVisibWave heightAir tempDewpointWater temp
2015-Apr-20 14:32N 34°36' E 134°55'1919.7
2015-Apr-20 13:33N 34°37' E 135°18'6 6.1
2015-Apr-20 12:32N 34°37' E 135°26'0 0.0
2015-Apr-20 11:26N 34°37' E 135°26'0 0.0
2015-Apr-20 10:26N 34°37' E 135°26'0 0.0
2015-Apr-20 09:32N 34°37' E 135°26'0 0.0
2015-Apr-20 08:32N 34°37' E 135°26'0 0.0
2015-Apr-20 07:26N 34°37' E 135°26'0 0.0
2015-Apr-20 06:32N 34°37' E 135°26'0 0.0
2015-Apr-20 05:32N 34°37' E 135°26'0 0.0
2015-Apr-20 04:32N 34°37' E 135°26'0 0.0
2015-Apr-20 03:32N 34°37' E 135°26'0 0.0
2015-Apr-20 02:32N 34°37' E 135°26'0 0.0
2015-Apr-20 01:32N 34°37' E 135°26'0 0.0
2015-Apr-20 00:32N 34°37' E 135°26'0 0.0
2015-Apr-19 23:26N 34°37' E 135°26'0 0.0
2015-Apr-19 22:32N 34°37' E 135°26'0 0.0
2015-Apr-19 21:32N 34°37' E 135°26'5 5.2
2015-Apr-19 20:33N 34°36' E 135°20'1616.2
2015-Apr-19 19:33N 34°37' E 135°00'3 0.1
2015-Apr-18 14:33N 34°37' E 134°57'1919.0
2015-Apr-18 13:34N 34°37' E 135°20'5 4.7
2015-Apr-18 12:29N 34°37' E 135°26'0 0.0
2015-Apr-18 11:23N 34°37' E 135°26'0 0.0
2015-Apr-18 10:29N 34°37' E 135°26'0 0.0
2015-Apr-18 09:23N 34°37' E 135°26'0 0.0
2015-Apr-18 08:29N 34°37' E 135°26'0 0.0
2015-Apr-18 07:29N 34°37' E 135°26'0 0.0
2015-Apr-18 06:29N 34°37' E 135°26'0 0.0
2015-Apr-18 05:29N 34°37' E 135°26'0 0.0
2015-Apr-18 04:17N 34°37' E 135°26'0 0.0
2015-Apr-18 03:29N 34°37' E 135°26'0 0.0
2015-Apr-18 02:23N 34°37' E 135°26'0 0.0
2015-Apr-18 01:23N 34°37' E 135°26'0 0.0
2015-Apr-18 00:29N 34°37' E 135°26'0 0.0
2015-Apr-17 23:23N 34°37' E 135°26'0 0.0
2015-Apr-17 22:05N 34°37' E 135°26'0 0.0
2015-Apr-17 21:29N 34°37' E 135°26'6 6.2
2015-Apr-17 20:33N 34°36' E 135°19'1817.8
2015-Apr-17 19:33N 34°36' E 134°57'1 0.0
2015-Apr-16 14:33N 34°37' E 134°56'1817.9
2015-Apr-16 13:33N 34°37' E 135°18'6 5.5
2015-Apr-16 12:23N 34°37' E 135°26'0 0.0
2015-Apr-16 11:29N 34°37' E 135°26'0 0.0
2015-Apr-16 10:29N 34°37' E 135°26'0 0.0
2015-Apr-16 09:29N 34°37' E 135°26'0 0.0
2015-Apr-16 08:23N 34°37' E 135°26'0 0.0
2015-Apr-16 07:29N 34°37' E 135°26'0 0.0
2015-Apr-16 06:29N 34°37' E 135°26'0 0.0
2015-Apr-16 05:29N 34°37' E 135°26'0 0.0
2015-Apr-16 04:23N 34°37' E 135°26'0 0.0
2015-Apr-16 03:29N 34°37' E 135°26'0 0.0
2015-Apr-16 02:29N 34°37' E 135°26'0 0.0
2015-Apr-16 01:29N 34°37' E 135°26'0 0.0
2015-Apr-16 00:29N 34°37' E 135°26'0 0.0
2015-Apr-15 23:29N 34°37' E 135°26'0 0.0
2015-Apr-15 22:23N 34°37' E 135°26'0 0.0
2015-Apr-15 21:17N 34°37' E 135°26'6 7.6
2015-Apr-15 20:33N 34°36' E 135°19'1717.0
2015-Apr-15 19:33N 34°37' E 134°58'2118.6
2015-Apr-15 18:25N 34°29' E 134°35'11 0.4
2015-Apr-14 15:05N 34°34' E 134°47'1018.3
2015-Apr-14 14:33N 34°37' E 134°58'1717.2
2015-Apr-14 13:33N 34°36' E 135°19'6 4.7
2015-Apr-14 12:22N 34°37' E 135°26'0 0.0
2015-Apr-14 11:22N 34°37' E 135°26'0 0.0
2015-Apr-14 10:28N 34°37' E 135°26'0 0.0
2015-Apr-14 09:28N 34°37' E 135°26'0 0.0
2015-Apr-14 08:22N 34°37' E 135°26'0 0.0
2015-Apr-14 07:28N 34°37' E 135°26'0 0.0
2015-Apr-14 06:28N 34°37' E 135°26'0 0.0
2015-Apr-14 05:22N 34°37' E 135°26'0 0.0
2015-Apr-14 04:28N 34°37' E 135°26'0 0.0
2015-Apr-14 03:22N 34°37' E 135°26'0 0.0
2015-Apr-14 02:28N 34°37' E 135°26'0 0.0
2015-Apr-14 01:28N 34°37' E 135°26'0 0.0
2015-Apr-14 00:28N 34°37' E 135°26'0 0.0
2015-Apr-13 23:28N 34°37' E 135°26'0 0.0
2015-Apr-13 22:28N 34°37' E 135°26'0 0.0
2015-Apr-13 21:22N 34°37' E 135°26'7 8.0
2015-Apr-13 20:33N 34°36' E 135°18'1818.2
2015-Apr-13 19:33N 34°35' E 134°56'2 0.1
2015-Apr-12 14:31N 34°37' E 134°57'1718.0
2015-Apr-12 13:33N 34°36' E 135°18'7 6.1
2015-Apr-12 12:29N 34°37' E 135°26'0 0.0
2015-Apr-12 11:23N 34°37' E 135°26'0 0.0
2015-Apr-12 10:29N 34°37' E 135°26'0 0.0
2015-Apr-12 09:29N 34°37' E 135°26'0 0.0
2015-Apr-12 07:29N 34°37' E 135°26'0 0.0
2015-Apr-12 06:29N 34°37' E 135°26'0 0.0
2015-Apr-12 03:29N 34°37' E 135°26'0 0.0
2015-Apr-12 02:29N 34°37' E 135°26'0 0.0
2015-Apr-12 01:17N 34°37' E 135°26'0 0.0
2015-Apr-11 23:11N 34°37' E 135°26'0 0.0
2015-Apr-11 22:29N 34°37' E 135°26'0 0.0
2015-Apr-11 21:29N 34°37' E 135°26'6 6.6
2015-Apr-11 20:33N 34°36' E 135°19'1918.7
2015-Apr-11 19:33N 34°35' E 134°56'1 0.0
2015-Apr-10 14:33N 34°37' E 134°56'  
Track history (hours):
 
Tides and Currents Weather Stations Pressure Air Temp Water Temp Dewpoint Dewpoint Depression Visibility Wind Speed Wind Dir Waves Ship Positions

Orenge 7

Last reported at 2015-Apr-20 14:32 UTC. Time now 2015-Apr-21 02:59 UTC.
Position N 34°36' E 134°55'.

Length 163 m; draft 4.9 m.

Type: Passenger vessel. MMSI: 431500186.

Date/timePositionNaut miles runAvg speedWind from/ knotsBaromVisibWave heightAir tempDewpointWater temp
2015-Apr-20 14:32N 34°36' E 134°55'1919.7
2015-Apr-20 13:33N 34°37' E 135°18'6 6.1
2015-Apr-20 12:32N 34°37' E 135°26'0 0.0
2015-Apr-20 11:26N 34°37' E 135°26'0 0.0
2015-Apr-20 10:26N 34°37' E 135°26'0 0.0
2015-Apr-20 09:32N 34°37' E 135°26'0 0.0
2015-Apr-20 08:32N 34°37' E 135°26'0 0.0
2015-Apr-20 07:26N 34°37' E 135°26'0 0.0
2015-Apr-20 06:32N 34°37' E 135°26'0 0.0
2015-Apr-20 05:32N 34°37' E 135°26'0 0.0
2015-Apr-20 04:32N 34°37' E 135°26'0 0.0
2015-Apr-20 03:32N 34°37' E 135°26'0 0.0
2015-Apr-20 02:32N 34°37' E 135°26'0 0.0
2015-Apr-20 01:32N 34°37' E 135°26'0 0.0
2015-Apr-20 00:32N 34°37' E 135°26'0 0.0
2015-Apr-19 23:26N 34°37' E 135°26'0 0.0
2015-Apr-19 22:32N 34°37' E 135°26'0 0.0
2015-Apr-19 21:32N 34°37' E 135°26'5 5.2
2015-Apr-19 20:33N 34°36' E 135°20'1616.2
2015-Apr-19 19:33N 34°37' E 135°00'3 0.1
2015-Apr-18 14:33N 34°37' E 134°57'1919.0
2015-Apr-18 13:34N 34°37' E 135°20'5 4.7
2015-Apr-18 12:29N 34°37' E 135°26'0 0.0
2015-Apr-18 11:23N 34°37' E 135°26'0 0.0
2015-Apr-18 10:29N 34°37' E 135°26'0 0.0
2015-Apr-18 09:23N 34°37' E 135°26'0 0.0
2015-Apr-18 08:29N 34°37' E 135°26'0 0.0
2015-Apr-18 07:29N 34°37' E 135°26'0 0.0
2015-Apr-18 06:29N 34°37' E 135°26'0 0.0
2015-Apr-18 05:29N 34°37' E 135°26'0 0.0
2015-Apr-18 04:17N 34°37' E 135°26'0 0.0
2015-Apr-18 03:29N 34°37' E 135°26'0 0.0
2015-Apr-18 02:23N 34°37' E 135°26'0 0.0
2015-Apr-18 01:23N 34°37' E 135°26'0 0.0
2015-Apr-18 00:29N 34°37' E 135°26'0 0.0
2015-Apr-17 23:23N 34°37' E 135°26'0 0.0
2015-Apr-17 22:05N 34°37' E 135°26'0 0.0
2015-Apr-17 21:29N 34°37' E 135°26'6 6.2
2015-Apr-17 20:33N 34°36' E 135°19'1817.8
2015-Apr-17 19:33N 34°36' E 134°57'1 0.0
2015-Apr-16 14:33N 34°37' E 134°56'1817.9
2015-Apr-16 13:33N 34°37' E 135°18'6 5.5
2015-Apr-16 12:23N 34°37' E 135°26'0 0.0
2015-Apr-16 11:29N 34°37' E 135°26'0 0.0
2015-Apr-16 10:29N 34°37' E 135°26'0 0.0
2015-Apr-16 09:29N 34°37' E 135°26'0 0.0
2015-Apr-16 08:23N 34°37' E 135°26'0 0.0
2015-Apr-16 07:29N 34°37' E 135°26'0 0.0
2015-Apr-16 06:29N 34°37' E 135°26'0 0.0
2015-Apr-16 05:29N 34°37' E 135°26'0 0.0
2015-Apr-16 04:23N 34°37' E 135°26'0 0.0
2015-Apr-16 03:29N 34°37' E 135°26'0 0.0
2015-Apr-16 02:29N 34°37' E 135°26'0 0.0
2015-Apr-16 01:29N 34°37' E 135°26'0 0.0
2015-Apr-16 00:29N 34°37' E 135°26'0 0.0
2015-Apr-15 23:29N 34°37' E 135°26'0 0.0
2015-Apr-15 22:23N 34°37' E 135°26'0 0.0
2015-Apr-15 21:17N 34°37' E 135°26'6 7.6
2015-Apr-15 20:33N 34°36' E 135°19'1717.0
2015-Apr-15 19:33N 34°37' E 134°58'2118.6
2015-Apr-15 18:25N 34°29' E 134°35'11 0.4
2015-Apr-14 15:05N 34°34' E 134°47'1018.3
2015-Apr-14 14:33N 34°37' E 134°58'1717.2
2015-Apr-14 13:33N 34°36' E 135°19'6 4.7
2015-Apr-14 12:22N 34°37' E 135°26'0 0.0
2015-Apr-14 11:22N 34°37' E 135°26'0 0.0
2015-Apr-14 10:28N 34°37' E 135°26'0 0.0
2015-Apr-14 09:28N 34°37' E 135°26'0 0.0
2015-Apr-14 08:22N 34°37' E 135°26'0 0.0
2015-Apr-14 07:28N 34°37' E 135°26'0 0.0
2015-Apr-14 06:28N 34°37' E 135°26'0 0.0
2015-Apr-14 05:22N 34°37' E 135°26'0 0.0
2015-Apr-14 04:28N 34°37' E 135°26'0 0.0
2015-Apr-14 03:22N 34°37' E 135°26'0 0.0
2015-Apr-14 02:28N 34°37' E 135°26'0 0.0
2015-Apr-14 01:28N 34°37' E 135°26'0 0.0
2015-Apr-14 00:28N 34°37' E 135°26'0 0.0
2015-Apr-13 23:28N 34°37' E 135°26'0 0.0
2015-Apr-13 22:28N 34°37' E 135°26'0 0.0
2015-Apr-13 21:22N 34°37' E 135°26'7 8.0
2015-Apr-13 20:33N 34°36' E 135°18'1818.2
2015-Apr-13 19:33N 34°35' E 134°56'2 0.1
2015-Apr-12 14:31N 34°37' E 134°57'1718.0
2015-Apr-12 13:33N 34°36' E 135°18'7 6.1
2015-Apr-12 12:29N 34°37' E 135°26'0 0.0
2015-Apr-12 11:23N 34°37' E 135°26'0 0.0
2015-Apr-12 10:29N 34°37' E 135°26'0 0.0
2015-Apr-12 09:29N 34°37' E 135°26'0 0.0
2015-Apr-12 07:29N 34°37' E 135°26'0 0.0
2015-Apr-12 06:29N 34°37' E 135°26'0 0.0
2015-Apr-12 03:29N 34°37' E 135°26'0 0.0
2015-Apr-12 02:29N 34°37' E 135°26'0 0.0
2015-Apr-12 01:17N 34°37' E 135°26'0 0.0
2015-Apr-11 23:11N 34°37' E 135°26'0 0.0
2015-Apr-11 22:29N 34°37' E 135°26'0 0.0
2015-Apr-11 21:29N 34°37' E 135°26'6 6.6
2015-Apr-11 20:33N 34°36' E 135°19'1918.7
2015-Apr-11 19:33N 34°35' E 134°56'1 0.0
2015-Apr-10 14:33N 34°37' E 134°56'  

Dump ship's entire track history